createdAt,value
2018-09-26T00:02:08.012Z,102799.80
2018-09-26T00:07:11.611Z,102795.13
2018-09-26T00:12:15.236Z,102789.09
2018-09-26T00:17:18.814Z,102803.32
2018-09-26T00:22:22.317Z,102795.78
2018-09-26T00:27:25.845Z,102769.16
2018-09-26T00:32:29.394Z,102748.33
2018-09-26T00:37:32.919Z,102749.07
2018-09-26T00:42:36.799Z,102735.41
2018-09-26T00:47:40.386Z,102743.70
2018-09-26T00:52:44.282Z,102732.16
2018-09-26T00:57:47.862Z,102732.31
2018-09-26T01:02:51.363Z,102715.50
2018-09-26T01:07:54.933Z,102714.53
2018-09-26T01:12:58.645Z,102715.27
2018-09-26T01:18:02.200Z,102710.59
2018-09-26T01:23:05.772Z,102709.39
2018-09-26T01:28:09.277Z,102699.17
2018-09-26T01:33:12.785Z,102697.28
2018-09-26T01:38:17.177Z,102684.59
2018-09-26T01:43:20.733Z,102671.77
2018-09-26T01:48:24.303Z,102667.59
2018-09-26T01:53:27.804Z,102668.77
2018-09-26T01:58:31.448Z,102671.13
2018-09-26T02:03:34.875Z,102665.95
2018-09-26T02:08:38.837Z,102675.61
2018-09-26T02:13:42.358Z,102670.42
2018-09-26T02:18:46.181Z,102652.02
2018-09-26T02:23:49.825Z,102672.42
2018-09-26T02:28:53.443Z,102677.47
2018-09-26T02:33:57.028Z,102675.06
2018-09-26T02:39:00.563Z,102670.68
2018-09-26T02:44:04.150Z,102671.39
2018-09-26T02:49:07.952Z,102648.27
2018-09-26T02:54:11.572Z,102658.39
2018-09-26T02:59:15.083Z,102665.97
2018-09-26T03:04:18.626Z,102659.84
2018-09-26T03:09:22.218Z,102651.41
2018-09-26T03:14:25.884Z,102660.15
2018-09-26T03:19:29.419Z,102647.16
2018-09-26T03:24:33.068Z,102664.20
2018-09-26T03:29:36.903Z,102660.67
2018-09-26T03:34:40.404Z,102651.96
2018-09-26T03:39:43.932Z,102659.01
2018-09-26T03:44:47.498Z,102653.98
2018-09-26T03:49:51.002Z,102646.75
2018-09-26T03:54:54.549Z,102647.75
2018-09-26T03:59:58.161Z,102628.95
2018-09-26T04:05:01.732Z,102620.99
2018-09-26T04:10:05.251Z,102614.33
2018-09-26T04:15:08.865Z,102605.69
2018-09-26T04:20:12.509Z,102597.32
2018-09-26T04:25:16.103Z,102601.67
2018-09-26T04:30:22.595Z,102605.13
2018-09-26T04:35:26.163Z,102590.77
2018-09-26T04:40:29.887Z,102576.83
2018-09-26T04:45:33.408Z,102571.30
2018-09-26T04:50:36.977Z,102566.80
2018-09-26T04:55:40.470Z,102578.79
2018-09-26T05:00:47.807Z,102584.36
2018-09-26T05:05:51.477Z,102587.58
2018-09-26T05:10:55.101Z,102597.56
2018-09-26T05:15:58.629Z,102607.22
2018-09-26T05:21:03.407Z,102602.35
2018-09-26T05:26:07.168Z,102599.69
2018-09-26T05:31:10.774Z,102603.23
2018-09-26T05:36:14.355Z,102606.88
2018-09-26T05:41:17.884Z,102603.88
2018-09-26T05:46:21.547Z,102605.41
2018-09-26T05:51:25.140Z,102603.34
2018-09-26T05:56:28.748Z,102598.22
2018-09-26T06:01:32.333Z,102585.95
2018-09-26T06:06:35.975Z,102594.95
2018-09-26T06:11:39.579Z,102592.86
2018-09-26T06:16:43.133Z,102587.50
2018-09-26T06:21:46.699Z,102560.13
2018-09-26T06:26:50.207Z,102556.50
2018-09-26T06:31:53.775Z,102564.53
2018-09-26T06:36:57.400Z,102554.63
2018-09-26T06:42:01.863Z,102548.16
2018-09-26T06:47:05.567Z,102542.84
2018-09-26T06:52:09.143Z,102536.61
2018-09-26T06:57:14.424Z,102549.31
2018-09-26T07:02:19.034Z,102541.35
2018-09-26T07:07:26.337Z,102545.90
2018-09-26T07:12:30.635Z,102543.92
2018-09-26T07:17:35.640Z,102552.94
2018-09-26T07:22:39.180Z,102554.49
2018-09-26T07:27:42.696Z,102563.49
2018-09-26T07:32:46.533Z,102563.84
2018-09-26T07:37:50.104Z,102559.84
2018-09-26T07:42:53.885Z,102567.55
2018-09-26T07:47:57.521Z,102566.13
2018-09-26T07:53:01.955Z,102561.58
2018-09-26T07:58:05.614Z,102556.98
2018-09-26T08:03:09.210Z,102554.95
2018-09-26T08:08:12.900Z,102560.86
2018-09-26T08:13:16.514Z,102561.60
2018-09-26T08:18:20.207Z,102575.63
2018-09-26T08:23:30.266Z,102582.02
2018-09-26T08:28:38.551Z,102588.04
2018-09-26T08:33:42.085Z,102587.56
2018-09-26T08:38:45.760Z,102584.31
2018-09-26T08:43:51.714Z,102574.01
2018-09-26T08:48:59.092Z,102585.25
2018-09-26T08:54:02.724Z,102577.50
2018-09-26T08:59:06.663Z,102572.37
2018-09-26T09:04:10.234Z,102566.84
2018-09-26T09:09:13.864Z,102569.23
2018-09-26T09:14:17.602Z,102580.19
2018-09-26T09:19:21.052Z,102564.89
2018-09-26T09:24:31.215Z,102562.81
2018-09-26T09:29:34.817Z,102564.09
2018-09-26T09:34:38.353Z,102564.06
2018-09-26T09:39:41.955Z,102560.62
2018-09-26T09:44:45.497Z,102554.07
2018-09-26T09:49:49.047Z,102565.03
2018-09-26T09:54:52.613Z,102557.59
2018-09-26T09:59:56.206Z,102555.53
2018-09-26T10:05:00.872Z,102556.48
2018-09-26T10:10:04.425Z,102548.22
2018-09-26T10:15:08.029Z,102549.13
2018-09-26T10:20:11.600Z,102541.20
2018-09-26T10:25:15.373Z,102539.41
2018-09-26T10:30:28.414Z,102531.53
2018-09-26T10:35:32.727Z,102523.28
2018-09-26T10:40:36.331Z,102518.05
2018-09-26T10:45:39.869Z,102522.00
2018-09-26T10:50:43.506Z,102517.61
2018-09-26T10:55:47.075Z,102517.59
2018-09-26T11:00:50.566Z,102512.80
2018-09-26T11:05:54.213Z,102506.59
2018-09-26T11:10:57.749Z,102504.02
2018-09-26T11:16:01.483Z,102498.75
2018-09-26T11:21:05.167Z,102489.09
2018-09-26T11:26:08.757Z,102493.02
2018-09-26T11:31:12.471Z,102487.30
2018-09-26T11:36:16.065Z,102472.38
2018-09-26T11:41:22.523Z,102470.19
2018-09-26T11:46:32.360Z,102457.39
2018-09-26T11:51:41.248Z,102451.61
2018-09-26T11:56:48.234Z,102449.94
2018-09-26T12:01:51.938Z,102444.11
2018-09-26T12:06:55.551Z,102435.72
2018-09-26T12:11:59.452Z,102436.19
2018-09-26T12:17:03.021Z,102425.21
2018-09-26T12:22:06.889Z,102404.48
2018-09-26T12:27:10.397Z,102408.25
2018-09-26T12:32:14.248Z,102405.94
2018-09-26T12:37:17.776Z,102398.43
2018-09-26T12:42:21.347Z,102398.73
2018-09-26T12:47:24.883Z,102396.17
2018-09-26T12:52:28.433Z,102381.38
2018-09-26T12:57:32.065Z,102377.25
2018-09-26T13:02:35.815Z,102370.48
2018-09-26T13:07:39.428Z,102365.74
2018-09-26T13:12:42.999Z,102370.20
2018-09-26T13:17:46.622Z,102360.27
2018-09-26T13:22:50.321Z,102349.37
2018-09-26T13:27:59.921Z,102338.95
2018-09-26T13:33:09.247Z,102330.63
2018-09-26T13:38:26.079Z,102323.25
2018-09-26T13:43:29.903Z,102320.28
2018-09-26T13:48:35.057Z,102318.38
2018-09-26T13:53:40.863Z,102319.02
2018-09-26T13:58:50.687Z,102315.84
2018-09-26T14:03:54.216Z,102299.55
2018-09-26T14:08:57.857Z,102306.41
2018-09-26T14:14:01.433Z,102306.92
2018-09-26T14:19:05.090Z,102301.84
2018-09-26T14:24:09.036Z,102298.78
2018-09-26T14:29:12.937Z,102293.02
2018-09-26T14:34:16.839Z,102289.33
2018-09-26T14:39:20.947Z,102283.67
2018-09-26T14:44:24.852Z,102274.66
2018-09-26T14:49:28.750Z,102270.81
2018-09-26T14:54:32.578Z,102267.80
2018-09-26T14:59:36.385Z,102270.55
2018-09-26T15:04:40.263Z,102263.53
2018-09-26T15:09:44.141Z,102252.59
2018-09-26T15:14:48.022Z,102248.18
2018-09-26T15:19:57.163Z,102252.14
2018-09-26T15:25:00.965Z,102242.86
2018-09-26T15:30:05.038Z,102238.09
2018-09-26T15:35:08.968Z,102241.08
2018-09-26T15:40:12.922Z,102237.66
2018-09-26T15:45:16.701Z,102243.73
2018-09-26T15:50:20.564Z,102244.03
2018-09-26T15:55:24.405Z,102249.50
2018-09-26T16:00:28.757Z,102240.94
2018-09-26T16:05:32.456Z,102238.26
2018-09-26T16:10:36.083Z,102234.44
2018-09-26T16:15:39.708Z,102236.42
2018-09-26T16:20:43.433Z,102232.09
2018-09-26T16:25:47.098Z,102221.31
2018-09-26T16:30:50.964Z,102229.87
2018-09-26T16:35:54.528Z,102224.41
2018-09-26T16:40:58.356Z,102225.10
2018-09-26T16:46:02.248Z,102225.63
2018-09-26T16:51:06.353Z,102228.98
2018-09-26T16:56:09.934Z,102230.01
2018-09-26T17:01:13.454Z,102222.34
2018-09-26T17:06:17.022Z,102223.37
2018-09-26T17:11:20.711Z,102236.69
2018-09-26T17:16:24.602Z,102243.83
2018-09-26T17:21:28.140Z,102249.18
2018-09-26T17:26:31.860Z,102256.28
2018-09-26T17:31:35.896Z,102252.06
2018-09-26T17:36:39.531Z,102250.52
2018-09-26T17:41:43.469Z,102253.69
2018-09-26T17:46:47.223Z,102263.47
2018-09-26T17:51:51.594Z,102257.42
2018-09-26T17:56:57.341Z,102250.03
2018-09-26T18:02:01.116Z,102252.76
2018-09-26T18:07:04.695Z,102259.42
2018-09-26T18:12:15.327Z,102258.61
2018-09-26T18:17:18.958Z,102257.27
2018-09-26T18:22:22.468Z,102268.62
2018-09-26T18:27:26.098Z,102267.30
2018-09-26T18:32:29.623Z,102262.44
2018-09-26T18:37:33.220Z,102262.86
2018-09-26T18:42:36.866Z,102273.25
2018-09-26T18:47:40.513Z,102273.69
2018-09-26T18:52:44.126Z,102277.97
2018-09-26T18:57:47.875Z,102295.42
2018-09-26T19:02:53.031Z,102294.02
2018-09-26T19:07:58.067Z,102289.11
2018-09-26T19:13:03.088Z,102285.93
2018-09-26T19:18:09.483Z,102286.80
2018-09-26T19:23:14.372Z,102300.23
2018-09-26T19:28:19.848Z,102303.71
2018-09-26T19:33:25.231Z,102293.97
2018-09-26T19:38:30.746Z,102287.77
2018-09-26T19:43:35.803Z,102293.04
2018-09-26T19:48:41.367Z,102290.82
2018-09-26T19:53:46.316Z,102296.05
2018-09-26T19:58:52.212Z,102297.73
2018-09-26T20:03:57.074Z,102302.95
2018-09-26T20:09:02.636Z,102301.59
2018-09-26T20:14:07.549Z,102291.95
2018-09-26T20:19:11.451Z,102286.28
2018-09-26T20:24:15.407Z,102288.83
2018-09-26T20:29:19.050Z,102296.23
2018-09-26T20:34:22.591Z,102294.94
2018-09-26T20:39:26.129Z,102297.87
2018-09-26T20:44:29.711Z,102302.70
2018-09-26T20:49:33.517Z,102288.27
2018-09-26T20:54:37.140Z,102286.31
2018-09-26T20:59:40.630Z,102280.19
2018-09-26T21:04:44.319Z,102282.47
2018-09-26T21:09:47.892Z,102277.69
2018-09-26T21:14:51.597Z,102283.80
2018-09-26T21:19:55.225Z,102280.83
2018-09-26T21:24:59.334Z,102281.24
2018-09-26T21:30:03.679Z,102292.56
2018-09-26T21:35:08.363Z,102293.44
2018-09-26T21:40:12.001Z,102288.09
2018-09-26T21:45:15.554Z,102281.43
2018-09-26T21:50:19.379Z,102285.72
2018-09-26T21:55:22.869Z,102292.82
2018-09-26T22:00:29.190Z,102299.46
2018-09-26T22:05:32.694Z,102303.89
2018-09-26T22:10:36.299Z,102297.00
2018-09-26T22:15:39.874Z,102297.13
2018-09-26T22:20:45.280Z,102299.04
2018-09-26T22:25:48.907Z,102300.13
2018-09-26T22:30:52.552Z,102311.61
2018-09-26T22:35:56.080Z,102302.19
2018-09-26T22:40:59.703Z,102305.80
2018-09-26T22:46:03.232Z,102306.40
2018-09-26T22:51:06.832Z,102306.50
2018-09-26T22:56:10.346Z,102303.05
2018-09-26T23:01:13.988Z,102303.05
2018-09-26T23:06:17.561Z,102298.68
2018-09-26T23:11:21.197Z,102295.65
2018-09-26T23:16:24.927Z,102302.62
2018-09-26T23:21:28.479Z,102295.66
2018-09-26T23:26:32.085Z,102290.02
2018-09-26T23:31:35.600Z,102286.06
2018-09-26T23:36:39.117Z,102286.95
2018-09-26T23:41:42.718Z,102273.81
2018-09-26T23:46:46.322Z,102267.70
2018-09-26T23:51:49.916Z,102263.78
2018-09-26T23:56:53.477Z,102253.73
